Time;durP1;ratioP1;P1;durP2;ratioP2;P2;SDS_P1;SDS_P2;PMS_P1;PMS_P2;Temp;Humidity;BMP_temperature;BMP_pressure;BME280_temperature;BME280_humidity;BME280_pressure;Samples;Min_cycle;Max_cycle;Signal;HPM_P1;HPM_P2
2022/04/04 00:00:21;;;;;;;4.97;3.78;;;;;;;-1.72;64.54;97015.16;4956035;29;20048;-87
2022/04/04 00:02:49;;;;;;;6.55;3.80;;;;;;;-1.81;64.39;97021.66;4956704;29;20115;-84
2022/04/04 00:05:16;;;;;;;4.88;3.33;;;;;;;-1.78;64.30;97020.63;4955131;29;20056;-85
2022/04/04 00:07:45;;;;;;;5.38;3.42;;;;;;;-1.76;64.22;97018.81;4955873;29;20075;-84
2022/04/04 00:10:14;;;;;;;7.28;4.90;;;;;;;-1.71;65.74;97016.78;4956311;29;20046;-84
2022/04/04 00:12:41;;;;;;;7.70;4.15;;;;;;;-1.72;64.30;97010.84;4956375;29;20042;-84
2022/04/04 00:15:10;;;;;;;6.68;4.32;;;;;;;-1.83;63.11;97017.56;4955629;29;20058;-84
2022/04/04 00:17:37;;;;;;;5.50;3.38;;;;;;;-1.98;62.64;97006.53;4956113;28;20066;-84
2022/04/04 00:20:08;;;;;;;6.80;3.60;;;;;;;-2.11;62.63;97011.56;4956701;29;20075;-85
2022/04/04 00:22:36;;;;;;;3.90;3.17;;;;;;;-2.21;62.98;97005.34;4956773;29;20052;-85
2022/04/04 00:25:05;;;;;;;4.43;3.35;;;;;;;-2.30;64.84;96999.06;4956069;29;20040;-84
2022/04/04 00:27:33;;;;;;;6.28;4.22;;;;;;;-2.25;66.36;96999.63;4955546;29;20066;-87
2022/04/04 00:30:01;;;;;;;4.82;3.90;;;;;;;-2.12;67.22;96997.97;4957918;28;20062;-85
2022/04/04 00:32:29;;;;;;;5.30;3.40;;;;;;;-2.12;65.68;97003.06;4957075;29;20044;-87
2022/04/04 00:34:56;;;;;;;5.55;3.70;;;;;;;-2.18;64.60;96995.78;4959179;29;20340;-84
2022/04/04 00:37:24;;;;;;;9.13;3.90;;;;;;;-2.22;64.90;96996.06;4959836;29;20052;-85
2022/04/04 00:39:52;;;;;;;5.13;3.80;;;;;;;-2.21;64.20;96998.50;4960353;29;20071;-85
2022/04/04 00:42:24;;;;;;;5.72;3.92;;;;;;;-2.31;64.13;96992.31;4962305;28;20430;-84
2022/04/04 00:44:51;;;;;;;13.18;5.60;;;;;;;-2.34;64.77;96992.50;4960451;29;20039;-85
2022/04/04 00:47:19;;;;;;;6.85;4.40;;;;;;;-2.32;63.99;96995.78;4958717;29;20054;-85
2022/04/04 00:49:48;;;;;;;8.05;5.10;;;;;;;-2.39;63.47;96987.66;4959465;29;20099;-84
2022/04/04 00:52:15;;;;;;;10.90;5.65;;;;;;;-2.39;64.23;96991.94;4959137;29;20055;-84
2022/04/04 00:54:43;;;;;;;6.97;4.30;;;;;;;-2.28;64.65;96990.38;4958976;29;20089;-86
2022/04/04 00:57:11;;;;;;;6.78;4.43;;;;;;;-2.25;65.03;96986.84;4958444;29;20050;-84
2022/04/04 00:59:40;;;;;;;5.45;3.80;;;;;;;-2.28;64.89;96990.38;4958550;29;20048;-84
2022/04/04 01:02:07;;;;;;;6.10;4.00;;;;;;;-2.29;64.80;96991.31;4958432;29;20051;-85
2022/04/04 01:04:35;;;;;;;6.35;4.25;;;;;;;-2.29;64.15;96985.38;4958420;29;20098;-83
2022/04/04 01:07:03;;;;;;;6.65;4.65;;;;;;;-2.31;63.47;96987.22;4956795;29;20048;-83
2022/04/04 01:09:31;;;;;;;6.55;3.75;;;;;;;-2.35;63.69;96990.84;4958665;29;20078;-87
2022/04/04 01:12:05;;;;;;;6.75;4.13;;;;;;;-2.33;65.43;96984.75;4958430;29;20042;-84
2022/04/04 01:14:34;;;;;;;6.95;4.10;;;;;;;-2.26;65.61;96990.31;4957497;29;20077;-84
2022/04/04 01:17:03;;;;;;;7.60;4.60;;;;;;;-2.27;64.14;96988.66;4958463;29;20063;-84
2022/04/04 01:19:31;;;;;;;7.28;4.13;;;;;;;-2.39;63.30;96976.63;4958445;29;20070;-85
2022/04/04 01:21:59;;;;;;;7.80;4.30;;;;;;;-2.50;63.33;96977.25;4958881;29;20134;-84
2022/04/04 01:24:28;;;;;;;7.20;4.85;;;;;;;-2.60;63.51;96979.56;4958693;29;20075;-87
2022/04/04 01:26:56;;;;;;;7.47;4.47;;;;;;;-2.59;65.23;96970.97;4957358;29;20062;-84
2022/04/04 01:29:24;;;;;;;6.20;4.40;;;;;;;-2.61;64.55;96970.25;4957963;29;20047;-84
2022/04/04 01:31:52;;;;;;;6.38;4.57;;;;;;;-2.64;64.03;96970.44;4957939;29;20395;-84
2022/04/04 01:34:21;;;;;;;5.88;3.97;;;;;;;-2.65;64.00;96967.97;4958540;29;20050;-87
2022/04/04 01:36:50;;;;;;;8.02;4.47;;;;;;;-2.60;65.12;96965.94;4957378;29;20051;-84
2022/04/04 01:39:18;;;;;;;7.50;4.00;;;;;;;-2.54;64.71;96966.41;4957359;29;20047;-83
2022/04/04 01:41:47;;;;;;;5.57;4.18;;;;;;;-2.55;64.83;96969.88;4957947;29;20048;-85
2022/04/04 01:44:15;;;;;;;6.65;4.15;;;;;;;-2.54;64.54;96965.59;4957501;29;20058;-84
2022/04/04 01:46:42;;;;;;;6.88;5.15;;;;;;;-2.56;65.95;96967.41;4957100;29;20054;-85
2022/04/04 01:49:11;;;;;;;8.15;4.93;;;;;;;-2.55;66.13;96969.88;4957803;29;20036;-84
2022/04/04 01:51:39;;;;;;;8.85;5.15;;;;;;;-2.56;65.60;96959.75;4957368;29;20062;-85
2022/04/04 01:54:07;;;;;;;6.28;4.60;;;;;;;-2.64;64.69;96957.66;4957513;29;20039;-84
2022/04/04 01:56:35;;;;;;;5.18;4.03;;;;;;;-2.74;65.45;96954.00;4958054;29;20038;-85
2022/04/04 01:59:04;;;;;;;7.95;4.60;;;;;;;-2.77;65.07;96954.19;4957765;29;20039;-84
2022/04/04 02:01:34;;;;;;;7.30;4.05;;;;;;;-2.84;64.75;96945.22;4957533;29;20032;-84
2022/04/04 02:04:02;;;;;;;7.53;5.22;;;;;;;-2.87;64.69;96948.78;4957267;29;20047;-84
2022/04/04 02:06:30;;;;;;;5.70;4.28;;;;;;;-2.80;65.41;96949.25;4955794;29;20083;-83
2022/04/04 02:08:58;;;;;;;4.95;3.90;;;;;;;-2.76;65.70;96948.97;4956213;29;20058;-83
2022/04/04 02:11:26;;;;;;;7.38;4.57;;;;;;;-2.75;64.90;96940.44;4956778;29;20111;-84
2022/04/04 02:13:54;;;;;;;5.97;4.25;;;;;;;-2.81;64.69;96943.34;4957058;29;20043;-84
2022/04/04 02:16:23;;;;;;;7.28;4.43;;;;;;;-2.83;65.92;96942.59;4956104;29;20138;-86
2022/04/04 02:18:51;;;;;;;9.52;4.13;;;;;;;-2.79;65.91;96935.59;4956252;29;20087;-85
2022/04/04 02:21:19;;;;;;;6.80;4.55;;;;;;;-2.83;64.60;96934.13;4956744;29;20115;-84
2022/04/04 02:23:46;;;;;;;8.05;5.00;;;;;;;-2.84;66.84;96933.31;4960399;28;20051;-86
2022/04/04 02:26:15;;;;;;;8.45;5.43;;;;;;;-2.78;67.72;96932.13;4958938;29;20066;-86
2022/04/04 02:28:42;;;;;;;6.97;4.90;;;;;;;-2.73;66.25;96935.22;4956657;29;20056;-84
2022/04/04 02:31:10;;;;;;;5.95;4.70;;;;;;;-2.70;65.67;96929.94;4956663;29;20051;-84
2022/04/04 02:33:39;;;;;;;7.22;4.65;;;;;;;-2.73;65.57;96925.84;4956725;29;20078;-83
2022/04/04 02:36:08;;;;;;;6.07;5.00;;;;;;;-2.76;65.67;96920.06;4955331;29;20071;-84
2022/04/04 02:38:36;;;;;;;5.30;4.18;;;;;;;-2.75;65.31;96921.75;4955865;29;20071;-83
2022/04/04 02:41:04;;;;;;;7.35;5.00;;;;;;;-2.73;65.30;96925.03;4955334;29;20494;-85
2022/04/04 02:43:33;;;;;;;9.30;5.65;;;;;;;-2.73;66.87;96922.47;4955062;28;20082;-83
2022/04/04 02:46:00;;;;;;;8.60;5.97;;;;;;;-2.62;69.28;96927.75;4954014;29;20056;-84
2022/04/04 02:48:28;;;;;;;6.68;4.68;;;;;;;-2.56;68.18;96926.53;4955555;29;20139;-84
2022/04/04 02:50:57;;;;;;;7.30;5.13;;;;;;;-2.63;68.09;96920.97;4955123;29;20035;-84
2022/04/04 02:53:25;;;;;;;8.65;4.68;;;;;;;-2.63;67.98;96920.16;4954052;29;20057;-83
2022/04/04 02:58:49;;;;;;;6.72;4.30;;;;;;;-2.87;65.68;96913.06;4932860;29;20064;-84
2022/04/04 03:01:19;;;;;;;6.68;4.55;;;;;;;-2.97;66.29;96912.78;4948700;29;20047;-84
2022/04/04 03:03:47;;;;;;;5.43;4.20;;;;;;;-2.96;65.75;96918.72;4953686;29;20048;-84
2022/04/04 03:06:16;;;;;;;7.03;4.70;;;;;;;-2.99;65.67;96917.16;4953565;29;20561;-85
2022/04/04 03:08:44;;;;;;;9.00;5.95;;;;;;;-3.03;67.13;96908.03;4954240;29;20045;-84
2022/04/04 03:11:12;;;;;;;7.35;5.35;;;;;;;-3.01;66.26;96913.88;4954550;29;20067;-84
2022/04/04 03:13:40;;;;;;;10.70;6.53;;;;;;;-2.97;68.50;96910.25;4954216;29;20078;-84
2022/04/04 03:16:07;;;;;;;6.55;5.00;;;;;;;-2.87;67.42;96912.25;4952244;29;20071;-84
2022/04/04 03:18:35;;;;;;;7.47;4.97;;;;;;;-2.88;66.48;96908.88;4952641;29;20055;-85
2022/04/04 03:21:04;;;;;;;8.02;4.97;;;;;;;-2.85;66.36;96906.13;4952759;29;20050;-83
2022/04/04 03:23:39;;;;;;;8.13;5.85;;;;;;;-2.83;67.84;96917.06;4952291;29;20048;-83
2022/04/04 03:26:08;;;;;;;6.35;4.70;;;;;;;-2.89;66.50;96914.88;4951693;29;20111;-83
2022/04/04 03:28:35;;;;;;;5.85;4.65;;;;;;;-2.92;65.61;96913.31;4954028;29;20120;-84
2022/04/04 03:31:05;;;;;;;8.38;5.65;;;;;;;-2.92;66.97;96913.31;4953298;29;20052;-84
2022/04/04 03:33:32;;;;;;;6.38;5.10;;;;;;;-2.83;67.50;96913.69;4952498;29;20058;-84
2022/04/04 03:36:00;;;;;;;7.55;5.55;;;;;;;-2.76;66.63;96904.75;4950952;29;20073;-84
2022/04/04 03:38:28;;;;;;;9.82;5.50;;;;;;;-2.75;66.95;96908.97;4950610;29;20425;-83
2022/04/04 03:40:57;;;;;;;7.55;5.40;;;;;;;-2.67;68.54;96898.28;4949915;29;20047;-83
2022/04/04 03:43:25;;;;;;;10.50;5.82;;;;;;;-2.66;66.52;96895.66;4950992;29;20124;-84
2022/04/04 03:45:53;;;;;;;8.90;6.03;;;;;;;-2.71;68.15;96898.47;4949301;29;20130;-83
2022/04/04 03:48:21;;;;;;;10.70;7.10;;;;;;;-2.55;71.15;96893.25;4949392;29;20075;-83
2022/04/04 03:50:51;;;;;;;8.40;5.65;;;;;;;-2.46;69.64;96898.72;4949649;29;20071;-84
2022/04/04 03:53:18;;;;;;;10.90;7.30;;;;;;;-2.50;69.80;96891.22;4949997;29;20052;-84
2022/04/04 03:55:47;;;;;;;10.07;6.78;;;;;;;-2.46;69.27;96896.16;4948731;29;20442;-83
2022/04/04 03:58:15;;;;;;;8.40;6.18;;;;;;;-2.55;66.99;96893.25;4959140;28;20040;-83
2022/04/04 04:00:43;;;;;;;11.43;6.03;;;;;;;-2.60;66.98;96897.84;4959243;28;20078;-84
2022/04/04 04:03:11;;;;;;;9.15;6.90;;;;;;;-2.59;67.74;96890.97;4959467;29;20276;-86
2022/04/04 04:05:39;;;;;;;10.27;6.15;;;;;;;-2.55;68.12;96883.03;4959141;28;20111;-84
2022/04/04 04:08:08;;;;;;;8.95;5.70;;;;;;;-2.59;66.48;96893.53;4958487;29;20115;-86
2022/04/04 04:10:36;;;;;;;9.80;6.78;;;;;;;-2.62;68.47;96886.06;4960663;29;20052;-85
2022/04/04 04:13:05;;;;;;;7.95;6.30;;;;;;;-2.59;68.06;96891.78;4960084;29;20078;-86
2022/04/04 04:15:34;;;;;;;10.23;6.65;;;;;;;-2.64;68.31;96898.94;4957189;29;20054;-83
2022/04/04 04:18:02;;;;;;;9.43;6.18;;;;;;;-2.60;67.35;96894.44;4952970;29;20051;-83
2022/04/04 04:20:32;;;;;;;10.20;6.55;;;;;;;-2.67;67.17;96898.28;4953900;29;20051;-83
2022/04/04 04:23:03;;;;;;;9.95;6.53;;;;;;;-2.73;67.63;96896.94;4952246;29;20079;-85
2022/04/04 04:25:32;;;;;;;11.90;6.63;;;;;;;-2.80;66.36;96899.03;4952342;29;20138;-84
2022/04/04 04:28:02;;;;;;;15.00;7.50;;;;;;;-2.93;65.48;96886.19;4952697;29;20086;-85
2022/04/04 04:30:30;;;;;;;10.05;6.93;;;;;;;-3.04;66.18;96893.66;4952399;29;20051;-83
2022/04/04 04:32:59;;;;;;;10.88;6.75;;;;;;;-3.12;66.01;96893.28;4953482;29;20052;-84
2022/04/04 04:35:28;;;;;;;11.57;7.53;;;;;;;-3.09;67.74;96892.28;4953461;29;20079;-84
2022/04/04 04:37:55;;;;;;;9.77;6.65;;;;;;;-3.07;66.76;96896.38;4952466;29;20062;-84
2022/04/04 04:40:24;;;;;;;12.27;8.40;;;;;;;-2.98;69.22;96895.00;4953043;29;20048;-84
2022/04/04 04:42:53;;;;;;;11.10;7.50;;;;;;;-2.83;69.39;96894.09;4952915;29;20062;-84
2022/04/04 04:45:21;;;;;;;13.43;8.57;;;;;;;-2.80;67.74;96899.03;4953781;29;20421;-83
2022/04/04 04:47:49;;;;;;;10.55;6.85;;;;;;;-2.70;67.98;96895.00;4953335;29;20051;-83
2022/04/04 04:50:20;;;;;;;12.52;8.65;;;;;;;-2.59;70.14;96896.91;4957404;29;20079;-84
2022/04/04 04:52:49;;;;;;;11.68;7.50;;;;;;;-2.57;67.62;96897.63;4955942;29;20061;-84
2022/04/04 04:55:19;;;;;;;13.15;8.52;;;;;;;-2.60;68.03;96895.28;4955766;29;20082;-85
2022/04/04 04:57:47;;;;;;;14.68;8.60;;;;;;;-2.60;68.66;96895.28;4955001;29;20052;-85
2022/04/04 05:00:18;;;;;;;12.18;7.13;;;;;;;-2.66;68.25;96893.09;4955905;29;20139;-84
2022/04/04 05:02:47;;;;;;;12.10;7.43;;;;;;;-2.73;67.31;96896.94;4955562;29;20080;-83
2022/04/04 05:05:15;;;;;;;14.43;8.00;;;;;;;-2.77;67.63;96893.72;4955980;29;20104;-84
2022/04/04 05:07:44;;;;;;;11.15;8.15;;;;;;;-2.80;68.92;96891.38;4955717;29;20082;-85
2022/04/04 05:10:12;;;;;;;11.07;7.15;;;;;;;-2.81;69.19;96888.91;4960442;29;20070;-86
2022/04/04 05:12:39;;;;;;;10.82;7.65;;;;;;;-2.77;68.98;96887.81;4961622;28;20051;-88
2022/04/04 05:15:08;;;;;;;11.63;7.63;;;;;;;-2.77;67.07;96887.81;4958993;29;20107;-84
2022/04/04 05:17:36;;;;;;;14.40;9.10;;;;;;;-2.83;68.75;96883.06;4956008;29;20095;-83
2022/04/04 05:20:04;;;;;;;13.75;8.57;;;;;;;-2.82;67.86;96882.16;4955068;29;20048;-84
2022/04/04 05:22:32;;;;;;;14.43;8.93;;;;;;;-2.90;66.62;96888.53;4955164;29;20056;-84
2022/04/04 05:25:01;;;;;;;16.58;10.32;;;;;;;-2.96;69.04;96878.69;4954714;29;20056;-84
2022/04/04 05:27:28;;;;;;;16.08;10.48;;;;;;;-2.90;68.85;96883.44;4954132;29;20111;-83
2022/04/04 05:29:56;;;;;;;13.98;9.35;;;;;;;-2.91;68.72;96886.06;4954827;29;20059;-85
2022/04/04 05:32:24;;;;;;;16.45;8.30;;;;;;;-2.91;68.42;96875.84;4955215;29;20120;-83
2022/04/04 05:34:51;;;;;;;17.85;9.20;;;;;;;-2.95;68.17;96870.13;4954764;29;20043;-84
2022/04/04 05:37:19;;;;;;;13.75;9.38;;;;;;;-2.87;69.31;96879.88;4953599;29;20046;-83
2022/04/04 05:39:46;;;;;;;13.43;9.25;;;;;;;-2.83;68.79;96877.97;4954904;29;20071;-83
2022/04/04 05:42:16;;;;;;;15.18;8.63;;;;;;;-2.80;70.37;96881.16;4954366;29;20059;-85
2022/04/04 05:44:43;;;;;;;10.50;7.93;;;;;;;-2.77;68.67;96875.88;4957080;29;20103;-83
2022/04/04 05:47:11;;;;;;;11.95;7.40;;;;;;;-2.80;67.32;96876.06;4958107;29;20107;-84
2022/04/04 05:49:40;;;;;;;14.18;9.07;;;;;;;-2.77;69.44;96873.31;4958450;29;20051;-84
2022/04/04 05:52:09;;;;;;;9.93;7.10;;;;;;;-2.72;68.11;96880.69;4958060;28;20051;-83
2022/04/04 05:54:53;;;;;;;14.93;8.93;;;;;;;-2.70;68.29;96883.97;4956356;29;20058;-85
2022/04/04 05:57:23;;;;;;;10.90;7.97;;;;;;;-2.66;69.30;96875.22;4955862;29;20095;-84
2022/04/04 05:59:51;;;;;;;12.50;8.27;;;;;;;-2.57;68.23;96884.88;4955868;29;20051;-83
2022/04/04 06:02:20;;;;;;;12.95;7.55;;;;;;;-2.57;67.07;96882.31;4956530;29;20055;-83
2022/04/04 06:04:48;;;;;;;13.00;8.82;;;;;;;-2.56;67.60;96886.53;4956572;29;20063;-83
2022/04/04 06:07:16;;;;;;;11.30;8.45;;;;;;;-2.56;66.83;96881.41;4956477;29;20051;-86
2022/04/04 06:09:45;;;;;;;13.77;9.13;;;;;;;-2.53;67.71;96873.56;4956021;29;20052;-84
2022/04/04 06:12:13;;;;;;;17.60;9.13;;;;;;;-2.43;68.31;96880.66;4956279;29;20070;-83
2022/04/04 06:14:42;;;;;;;16.90;11.50;;;;;;;-2.34;69.32;96875.81;4955755;29;20155;-83
2022/04/04 06:17:09;;;;;;;21.27;13.43;;;;;;;-2.27;69.66;96876.25;4954641;29;20052;-84
2022/04/04 06:19:38;;;;;;;16.27;11.90;;;;;;;-2.18;69.26;96875.66;4954843;29;20061;-83
2022/04/04 06:22:07;;;;;;;16.95;11.52;;;;;;;-2.08;70.50;96871.63;4955114;29;20054;-83
2022/04/04 06:24:35;;;;;;;12.73;9.70;;;;;;;-1.98;68.67;96860.81;4955342;29;20398;-83
2022/04/04 06:27:03;;;;;;;13.43;9.73;;;;;;;-2.04;67.02;96873.97;4955701;29;20083;-84
2022/04/04 06:29:31;;;;;;;16.05;10.30;;;;;;;-2.02;66.81;96869.59;4955654;29;20048;-84
2022/04/04 06:32:00;;;;;;;16.50;11.48;;;;;;;-2.00;69.98;96877.97;4954749;29;20082;-83
2022/04/04 06:34:28;;;;;;;14.93;10.70;;;;;;;-1.91;69.18;96873.09;4955408;29;20047;-83
2022/04/04 06:43:11;;;;;;;21.33;12.13;;;;;;;-1.50;69.61;96871.34;4976933;29;20043;-84
2022/04/04 06:49:27;;;;;;;23.10;14.80;;;;;;;-1.02;73.14;96866.47;4968379;29;20104;-83
2022/04/04 07:07:07;;;;;;;19.25;11.27;;;;;;;-0.53;67.72;96862.28;5383067;23;20066;-84
2022/04/04 07:09:35;;;;;;;15.95;10.40;;;;;;;-0.43;66.72;96858.97;4956346;29;20101;-84
2022/04/04 07:12:03;;;;;;;18.65;12.00;;;;;;;-0.29;68.21;96854.63;4956829;28;20086;-83
2022/04/04 07:14:31;;;;;;;15.98;9.38;;;;;;;-0.16;66.60;96855.38;4957821;29;20118;-84
2022/04/04 07:17:00;;;;;;;16.08;10.02;;;;;;;-0.06;64.57;96856.38;4957986;28;20065;-83
2022/04/04 07:19:33;;;;;;;17.02;11.10;;;;;;;0.09;65.49;96853.63;4955884;29;20051;-84
2022/04/04 07:27:30;;;;;;;15.63;9.05;;;;;;;0.64;64.58;96852.19;5240351;23;20058;-82
2022/04/04 07:30:02;;;;;;;15.57;10.68;;;;;;;0.85;66.75;96854.88;4958942;29;20062;-82
2022/04/04 07:32:38;;;;;;;13.65;9.85;;;;;;;1.01;63.41;96847.69;4975183;29;20077;-82
2022/04/04 07:35:44;;;;;;;14.65;9.23;;;;;;;1.13;63.24;96851.06;4973846;29;20063;-82
2022/04/04 07:38:31;;;;;;;12.35;8.57;;;;;;;1.22;61.36;96850.38;4976629;28;20042;-82
2022/04/04 07:51:55;;;;;;;11.20;6.85;;;;;;;2.11;58.32;96846.91;5654698;23;20287;-81
2022/04/04 07:54:25;;;;;;;9.80;7.85;;;;;;;2.31;62.45;96838.41;4941288;29;20048;-81
2022/04/04 07:56:56;;;;;;;11.57;7.82;;;;;;;2.51;59.83;96838.53;4944266;29;20055;-81
2022/04/04 07:59:24;;;;;;;9.10;7.63;;;;;;;2.69;61.10;96837.03;4960350;28;20066;-79
2022/04/04 08:01:52;;;;;;;11.80;6.78;;;;;;;2.86;59.25;96828.72;4959336;28;20051;-81
2022/04/04 08:04:21;;;;;;;9.52;7.30;;;;;;;3.07;57.85;96830.44;4949603;29;20062;-81
2022/04/04 08:17:32;;;;;;;7.90;6.47;;;;;;;4.37;59.77;96830.41;5399811;23;20055;-80
2022/04/04 08:20:00;;;;;;;9.40;6.90;;;;;;;4.60;60.50;96831.75;4964462;28;20051;-81
2022/04/04 08:22:28;;;;;;;9.15;6.90;;;;;;;4.81;59.67;96823.81;4965466;28;20062;-81
2022/04/04 08:24:57;;;;;;;8.73;6.28;;;;;;;5.03;58.11;96819.25;4966494;28;20055;-81
2022/04/04 08:27:26;;;;;;;10.07;6.93;;;;;;;5.26;58.15;96817.94;4967918;28;20051;-81
2022/04/04 08:29:54;;;;;;;8.50;5.80;;;;;;;5.51;57.84;96820.81;4969360;28;20055;-81
2022/04/04 08:32:23;;;;;;;8.18;4.90;;;;;;;5.74;57.05;96814.28;4970504;28;20061;-81
2022/04/04 08:34:53;;;;;;;7.07;5.15;;;;;;;5.94;53.65;96811.56;4972554;28;20051;-81
2022/04/04 08:37:23;;;;;;;7.20;5.80;;;;;;;6.12;54.79;96807.25;4974172;29;20043;-82
2022/04/04 08:39:51;;;;;;;6.32;5.07;;;;;;;6.30;54.81;96811.59;4976477;28;20047;-81
2022/04/04 08:42:26;;;;;;;6.32;5.05;;;;;;;6.45;54.60;96810.09;4975588;29;20039;-80
2022/04/04 08:44:58;;;;;;;5.57;4.80;;;;;;;6.72;52.92;96810.94;4975866;29;20059;-81
2022/04/04 08:47:29;;;;;;;5.60;4.50;;;;;;;6.98;54.57;96806.53;4976301;29;20047;-80
2022/04/04 08:50:03;;;;;;;7.70;4.97;;;;;;;7.22;51.74;96810.22;4976513;28;20114;-81
2022/04/04 08:52:34;;;;;;;6.25;5.15;;;;;;;7.45;51.93;96801.88;4977213;29;20065;-80
2022/04/04 08:55:05;;;;;;;6.47;4.40;;;;;;;7.64;49.94;96802.41;4977073;28;20051;-81
2022/04/04 08:57:35;;;;;;;6.95;4.60;;;;;;;7.83;49.32;96793.53;4980557;29;20066;-81
2022/04/04 09:00:11;;;;;;;5.78;4.97;;;;;;;8.05;50.54;96786.91;4981442;28;20123;-81
2022/04/04 09:03:05;;;;;;;5.60;4.80;;;;;;;8.35;49.14;96784.66;4981471;28;20047;-81
2022/04/04 09:05:54;;;;;;;6.13;4.55;;;;;;;8.64;45.00;96789.38;4981600;28;20045;-81
2022/04/04 09:08:28;;;;;;;5.82;4.45;;;;;;;8.96;44.71;96787.66;4981715;29;20059;-82
2022/04/04 09:11:00;;;;;;;5.13;4.63;;;;;;;9.27;43.30;96779.13;4980795;29;20035;-81
2022/04/04 09:13:30;;;;;;;4.93;4.10;;;;;;;9.73;41.55;96779.25;4981087;29;20077;-81
2022/04/04 09:16:01;;;;;;;4.53;3.97;;;;;;;10.58;38.48;96772.28;4981562;28;20054;-80
2022/04/04 09:18:45;;;;;;;8.25;4.18;;;;;;;12.02;41.80;96776.13;4981721;28;20047;-81
2022/04/04 09:21:31;;;;;;;4.75;3.97;;;;;;;13.74;36.74;96770.41;4981611;28;20035;-81
2022/04/04 09:24:07;;;;;;;7.28;3.80;;;;;;;15.08;35.52;96767.84;4981440;28;20031;-81
2022/04/04 09:26:40;;;;;;;6.05;3.50;;;;;;;16.13;30.01;96767.59;4981059;28;20042;-82
2022/04/04 09:33:53;;;;;;;3.75;3.42;;;;;;;18.84;24.70;96746.16;5079712;23;20043;-79
2022/04/04 09:39:47;;;;;;;4.57;3.50;;;;;;;20.46;26.14;96743.41;4964041;23;20099;-80
2022/04/04 09:43:06;;;;;;;;;;;;;;;21.18;25.93;96733.88;4962816;28;20052;-79
2022/04/04 09:46:22;;;;;;;4.32;3.97;;;;;;;21.78;22.53;96725.03;4959556;28;19934;-80
2022/04/04 10:00:23;;;;;;;5.22;3.88;;;;;;;23.55;22.19;96702.81;4884519;29;20033;-80
2022/04/04 10:03:55;;;;;;;6.10;4.80;;;;;;;24.30;20.04;96703.22;4878949;29;20098;-79
2022/04/04 10:37:32;;;;;;;6.28;4.75;;;;;;;22.99;19.55;96652.84;5021957;23;20083;-78
2022/04/04 10:45:32;;;;;;;4.57;4.18;;;;;;;21.63;17.57;96631.19;5171299;23;20031;-79
2022/04/04 10:48:11;;;;;;;4.60;4.13;;;;;;;20.95;19.96;96632.28;4983164;28;20034;-79
2022/04/04 11:04:34;;;;;;;4.80;4.07;;;;;;;15.32;24.25;96613.94;5469579;23;20043;-81
